Tor Futura — OZZE2 — position and weather

sailwx.info

Track history (hours):
 
Tides and Currents Weather Stations Pressure Air Temp Water Temp Dewpoint Dewpoint Depression Visibility Wind Speed Wind Dir Waves Ship Positions

Tor Futura

Last reported at 2017-May-28 05:48 UTC. Time now 2017-May-28 18:33 UTC.
Position N 55°41' E 019°59'.

Length 183.1 m; beam 25.2 m; draft 7.8 m.

Type: Ship. MMSI: 219927000.

Date/timePositionNaut miles runAvg speedWind from/ knotsBaromVisibWave heightAir tempDewpointWater temp
2017-May-28 05:48N 55°41' E 019°59'515.6
2017-May-28 05:31N 55°40' E 019°51'1315.4
2017-May-28 04:40N 55°39' E 019°28'315.6
2017-May-28 04:28N 55°39' E 019°23'715.5
2017-May-28 04:00N 55°38' E 019°10'815.2
2017-May-28 03:30N 55°37' E 018°57'815.4
2017-May-28 03:00N 55°36' E 018°43'815.6
2017-May-28 02:31N 55°35' E 018°30'815.5
2017-May-28 02:01N 55°34' E 018°16'815.5
2017-May-28 01:31N 55°33' E 018°02'815.8
2017-May-28 01:01N 55°33' E 017°49'815.8
2017-May-28 00:28N 55°32' E 017°34'715.7
2017-May-28 00:00N 55°31' E 017°21'815.7
2017-May-27 23:31N 55°30' E 017°07'815.8
2017-May-27 23:01N 55°30' E 016°53'815.8
2017-May-27 22:31N 55°29' E 016°39'815.8
2017-May-27 22:00N 55°28' E 016°25'815.7
2017-May-27 21:31N 55°28' E 016°12'816.0
2017-May-27 21:01N 55°27' E 015°58'816.1
2017-May-27 20:31N 55°26' E 015°43'815.9
2017-May-27 20:01N 55°25' E 015°29'815.6
2017-May-27 19:31N 55°25' E 015°16'815.7
2017-May-27 19:00N 55°24' E 015°02'815.8
2017-May-27 18:31N 55°23' E 014°48'714.9
2017-May-27 18:00N 55°20' E 014°36'816.1
2017-May-27 17:31N 55°15' E 014°26'815.4
2017-May-27 16:59N 55°11' E 014°13'815.5
2017-May-27 16:29N 55°11' E 013°59'715.1
2017-May-27 16:01N 55°12' E 013°47'815.4
2017-May-27 15:30N 55°13' E 013°33'815.4
2017-May-27 15:01N 55°13' E 013°20'815.6
2017-May-27 14:31N 55°14' E 013°07'1515.4
2017-May-27 13:31N 55°18' E 012°40'612.4
2017-May-27 13:00N 55°24' E 012°39'612.9
2017-May-27 12:30N 55°30' E 012°42'611.3
2017-May-27 12:00N 55°36' E 012°42'510.9
2017-May-27 11:30N 55°41' E 012°39'2 3.9
2017-May-27 10:59N 55°42' E 012°36'0 0.0
2017-May-27 10:29N 55°42' E 012°36'0 0.0
2017-May-27 09:59N 55°42' E 012°36'0 0.0
2017-May-27 09:30N 55°42' E 012°36'1 2.1
2017-May-27 09:00N 55°43' E 012°37'510.7
2017-May-27 08:30N 55°47' E 012°42'713.3
2017-May-27 08:00N 55°54' E 012°39'612.9
2017-May-27 07:30N 56°00' E 012°40'612.9
2017-May-27 07:00N 56°06' E 012°34'612.8
2017-May-27 06:30N 56°09' E 012°24'612.9
2017-May-27 06:00N 56°11' E 012°13'713.4
2017-May-27 05:29N 56°11' E 012°01'813.5
2017-May-27 04:56N 56°09' E 011°47'613.5
2017-May-27 04:29N 56°09' E 011°37'813.4
2017-May-27 03:55N 56°08' E 011°23'612.9
2017-May-27 03:25N 56°06' E 011°11'34 2.0
2017-May-26 10:21N 56°11' E 012°12'617.2
2017-May-26 10:00N 56°11' E 012°22'816.6
2017-May-26 09:31N 56°06' E 012°35'815.1
2017-May-26 09:01N 55°59' E 012°41'815.9
2017-May-26 08:31N 55°52' E 012°43'815.7
2017-May-26 08:01N 55°44' E 012°40'3 5.7
2017-May-26 07:30N 55°42' E 012°36'0 0.0
2017-May-26 07:00N 55°42' E 012°36'0 0.0
2017-May-26 06:31N 55°42' E 012°36'1 1.5
2017-May-26 06:00N 55°43' E 012°37'611.2
2017-May-26 05:30N 55°38' E 012°42'611.5
2017-May-26 05:00N 55°32' E 012°43'815.9
2017-May-26 04:30N 55°24' E 012°41'713.7
2017-May-26 04:00N 55°18' E 012°45'917.2
2017-May-26 03:30N 55°16' E 012°60'918.2
2017-May-26 03:00N 55°16' E 013°15'918.3
2017-May-26 02:30N 55°15' E 013°32'1218.2
2017-May-26 01:51N 55°14' E 013°52'718.5
2017-May-26 01:30N 55°14' E 014°04'917.7
2017-May-26 01:00N 55°15' E 014°19'918.4
2017-May-26 00:30N 55°22' E 014°31'917.0
2017-May-26 00:00N 55°26' E 014°44'918.3
2017-May-25 23:30N 55°27' E 014°59'918.3
2017-May-25 23:00N 55°27' E 015°15'918.2
2017-May-25 22:30N 55°28' E 015°32'918.1
2017-May-25 22:00N 55°29' E 015°47'917.8
2017-May-25 21:30N 55°29' E 016°03'918.0
2017-May-25 21:00N 55°30' E 016°19'917.9
2017-May-25 20:30N 55°30' E 016°35'917.9
2017-May-25 19:59N 55°30' E 016°51'3517.9
2017-May-25 18:00N 55°33' E 017°54'1417.8
2017-May-25 17:12N 55°35' E 018°19'417.9
2017-May-25 16:59N 55°35' E 018°26'1017.8
2017-May-25 16:26N 55°36' E 018°43'918.0
2017-May-25 15:55N 55°37' E 018°59'73 5.9
2017-May-25 03:37N 55°41' E 021°08'0 0.0
2017-May-25 03:31N 55°41' E 021°08'0 0.0
2017-May-25 03:00N 55°41' E 021°08'4 1.5
2017-May-25 00:25N 55°44' E 021°03'614.1
2017-May-25 00:00N 55°44' E 020°53'1217.0
2017-May-24 23:18N 55°43' E 020°32'717.0
2017-May-24 22:54N 55°42' E 020°19'717.0
2017-May-24 22:31N 55°41' E 020°08'916.9
2017-May-24 22:00N 55°41' E 019°53'1417.2
2017-May-24 21:12N 55°39' E 019°28'317.2
2017-May-24 21:00N 55°39' E 019°22'917.2
2017-May-24 20:30N 55°38' E 019°07'917.2
2017-May-24 20:00N 55°37' E 018°52'1117.5
2017-May-24 19:24N 55°35' E 018°33'817.5
2017-May-24 18:54N 55°34' E 018°18'717.8
2017-May-24 18:30N 55°34' E 018°06'917.9
2017-May-24 17:59N 55°33' E 017°49'817.9
2017-May-24 17:31N 55°32' E 017°34'917.7
2017-May-24 17:00N 55°31' E 017°19'917.8
2017-May-24 16:30N 55°30' E 017°03'917.6
2017-May-24 16:00N 55°29' E 016°48'917.6
2017-May-24 15:31N 55°28' E 016°32'917.8
2017-May-24 15:01N 55°28' E 016°17'917.9
2017-May-24 14:30N 55°27' E 016°01'1817.9
2017-May-24 13:31N 55°25' E 015°29'917.6
2017-May-24 13:01N 55°25' E 015°14'917.6
2017-May-24 12:31N 55°24' E 014°59'917.7
2017-May-24 12:01N 55°23' E 014°43'917.1
2017-May-24 11:31N 55°18' E 014°31'917.9
2017-May-24 11:01N 55°12' E 014°20'917.2
2017-May-24 10:30N 55°10' E 014°04'917.6
2017-May-24 10:00N 55°11' E 013°49'917.6
2017-May-24 09:30N 55°13' E 013°34'917.4
2017-May-24 09:00N 55°14' E 013°19'917.7
2017-May-24 08:30N 55°14' E 013°04'917.6
2017-May-24 08:01N 55°16' E 012°48'714.4
2017-May-24 07:31N 55°21' E 012°39'815.8
2017-May-24 07:00N 55°28' E 012°41'612.1
2017-May-24 06:30N 55°34' E 012°42'611.3
2017-May-24 06:00N 55°40' E 012°40'3 6.6
2017-May-24 05:30N 55°42' E 012°36'0 0.0
2017-May-24 04:59N 55°42' E 012°36'0 0.0
2017-May-24 04:29N 55°42' E 012°36'0 0.0
2017-May-24 04:00N 55°42' E 012°36'1 1.3
2017-May-24 03:30N 55°42' E 012°37'612.5
2017-May-24 03:00N 55°48' E 012°42'815.3
2017-May-24 02:30N 55°55' E 012°39'714.9
2017-May-24 02:00N 56°03' E 012°39'815.5
2017-May-24 01:30N 56°08' E 012°28'916.1
2017-May-24 00:57N 56°12' E 012°13'5 0.2
2017-May-22 20:50N 56°11' E 012°04'513.9
2017-May-22 20:28N 56°11' E 012°13'713.8
2017-May-22 20:00N 56°10' E 012°25'714.2
2017-May-22 19:30N 56°06' E 012°35'713.7
2017-May-22 19:00N 56°00' E 012°41'713.6
2017-May-22 18:30N 55°54' E 012°44'714.0
2017-May-22 18:00N 55°47' E 012°42'611.6
2017-May-22 17:30N 55°42' E 012°36'0 0.1
2017-May-22 17:00N 55°42' E 012°36'0 0.0
2017-May-22 16:30N 55°42' E 012°36'0 0.0
2017-May-22 16:00N 55°42' E 012°36'1 3.0
2017-May-22 15:31N 55°43' E 012°38'612.6
2017-May-22 15:00N 55°37' E 012°42'1110.7
2017-May-22 14:00N 55°26' E 012°41'714.6
2017-May-22 13:31N 55°19' E 012°40'714.3
2017-May-22 13:00N 55°16' E 012°52'714.1
2017-May-22 12:30N 55°15' E 013°05'714.5
2017-May-22 12:01N 55°15' E 013°17'814.3
2017-May-22 11:28N 55°15' E 013°31'914.2
2017-May-22 10:50N 55°14' E 013°47'514.3
2017-May-22 10:30N 55°14' E 013°55'714.4
2017-May-22 09:59N 55°14' E 014°08'613.1
2017-May-22 09:31N 55°15' E 014°19'714.4
2017-May-22 09:01N 55°20' E 014°28'815.3
2017-May-22 08:31N 55°25' E 014°38'918.3
2017-May-22 08:01N 55°27' E 014°54'918.6
2017-May-22 07:30N 55°27' E 015°10'815.9
2017-May-22 07:01N 55°28' E 015°24'815.2
2017-May-22 06:31N 55°29' E 015°37'715.0
2017-May-22 06:01N 55°29' E 015°50'815.4
2017-May-22 05:31N 55°29' E 016°04'815.4
2017-May-22 05:01N 55°30' E 016°18'815.4
2017-May-22 04:31N 55°30' E 016°31'815.5
2017-May-22 04:00N 55°31' E 016°45'815.5
2017-May-22 03:31N 55°31' E 016°59'1915.4
2017-May-22 02:15N 55°32' E 017°33'615.3
2017-May-22 01:53N 55°32' E 017°43'1315.3
2017-May-22 01:00N 55°34' E 018°06'815.5
2017-May-22 00:30N 55°35' E 018°20'815.4
2017-May-22 00:00N 55°35' E 018°33'815.6
2017-May-21 23:30N 55°36' E 018°47'815.5
2017-May-21 23:00N 55°37' E 019°01'815.2
2017-May-21 22:31N 55°38' E 019°14'815.3
2017-May-21 22:00N 55°39' E 019°28'57 6.6
2017-May-21 13:22N 55°41' E 021°08'69 7.3
2017-May-21 03:54N 55°37' E 019°06'615.8
2017-May-21 03:30N 55°37' E 018°55'3515.9
2017-May-21 01:18N 55°33' E 017°54'1315.6
2017-May-21 00:28N 55°32' E 017°31'815.3
2017-May-20 23:58N 55°31' E 017°18'715.4
2017-May-20 23:31N 55°30' E 017°05'815.4
2017-May-20 23:01N 55°30' E 016°52'815.5
2017-May-20 22:31N 55°29' E 016°38'815.4
2017-May-20 22:00N 55°28' E 016°25'815.6
2017-May-20 21:31N 55°27' E 016°11'815.6
2017-May-20 21:01N 55°26' E 015°57'815.6
2017-May-20 20:31N 55°26' E 015°43'815.8
2017-May-20 20:01N 55°25' E 015°30'815.7
2017-May-20 19:31N 55°24' E 015°16'815.5
2017-May-20 19:00N 55°24' E 015°02'816.0
2017-May-20 18:30N 55°23' E 014°48'714.7
2017-May-20 18:00N 55°20' E 014°36'815.9
2017-May-20 17:30N 55°15' E 014°26'815.4
2017-May-20 17:00N 55°11' E 014°14'815.8
2017-May-20 16:30N 55°11' E 014°00'816.0
2017-May-20 15:59N 55°12' E 013°46'816.0
2017-May-20 15:30N 55°12' E 013°32'815.8
2017-May-20 15:00N 55°13' E 013°19'815.9
2017-May-20 14:30N 55°14' E 013°05'1515.3
2017-May-20 13:31N 55°18' E 012°39'815.6
2017-May-20 13:01N 55°26' E 012°40'714.1
2017-May-20 12:30N 55°33' E 012°42'5 9.6
2017-May-20 12:00N 55°38' E 012°42'611.4
2017-May-20 11:31N 55°43' E 012°37'1 1.7
2017-May-20 10:59N 55°42' E 012°36'0 0.0
2017-May-20 10:29N 55°42' E 012°36'0 0.0
2017-May-20 09:59N 55°42' E 012°36'0 0.0
2017-May-20 09:30N 55°42' E 012°36'1 2.0
2017-May-20 09:00N 55°43' E 012°37'611.8
2017-May-20 08:30N 55°48' E 012°42'815.2
2017-May-20 08:01N 55°55' E 012°39'714.9
2017-May-20 07:30N 56°03' E 012°39'815.2
2017-May-20 07:00N 56°08' E 012°28'815.5
2017-May-20 06:30N 56°11' E 012°16'35 1.9
2017-May-19 11:42N 56°07' E 011°13'3314.3
2017-May-19 09:23N 56°11' E 012°12'514.5
2017-May-19 09:00N 56°11' E 012°22'714.5
2017-May-19 08:30N 56°07' E 012°33'714.2
2017-May-19 08:00N 56°01' E 012°40'714.5
2017-May-19 07:30N 55°54' E 012°44'714.3
2017-May-19 07:00N 55°47' E 012°43'612.6
2017-May-19 06:30N 55°42' E 012°36'0 0.3
2017-May-19 05:58N 55°42' E 012°36'0 0.0
2017-May-19 05:28N 55°42' E 012°36'0 0.6
2017-May-19 05:00N 55°42' E 012°36'1 2.7
2017-May-19 04:30N 55°42' E 012°38'5 9.9
2017-May-19 04:01N 55°37' E 012°42'5 9.7
2017-May-19 03:30N 55°32' E 012°43'815.1
2017-May-19 03:00N 55°25' E 012°41'714.1
2017-May-19 02:30N 55°18' E 012°45'917.2
2017-May-19 02:00N 55°16' E 012°59'918.6
2017-May-19 01:30N 55°16' E 013°16'918.6
2017-May-19 01:00N 55°15' E 013°32'1218.9
2017-May-19 00:23N 55°15' E 013°52'718.6
2017-May-19 00:00N 55°15' E 014°05'816.2
2017-May-18 23:30N 55°16' E 014°19'918.4
2017-May-18 23:00N 55°23' E 014°31'918.2
2017-May-18 22:31N 55°27' E 014°45'918.7
2017-May-18 22:00N 55°27' E 015°01'918.8
2017-May-18 21:30N 55°28' E 015°18'918.5
2017-May-18 21:00N 55°28' E 015°34'918.4
2017-May-18 20:31N 55°29' E 015°50'918.5
2017-May-18 20:00N 55°29' E 016°07'918.5
2017-May-18 19:31N 55°30' E 016°23'918.5
2017-May-18 19:00N 55°30' E 016°39'918.4
2017-May-18 18:30N 55°31' E 016°56'1018.4
2017-May-18 17:59N 55°31' E 017°13'  
Track history (hours):
 
Tides and Currents Weather Stations Pressure Air Temp Water Temp Dewpoint Dewpoint Depression Visibility Wind Speed Wind Dir Waves Ship Positions

Tor Futura

Last reported at 2017-May-28 05:48 UTC. Time now 2017-May-28 18:33 UTC.
Position N 55°41' E 019°59'.

Length 183.1 m; beam 25.2 m; draft 7.8 m.

Type: Ship. MMSI: 219927000.

Date/timePositionNaut miles runAvg speedWind from/ knotsBaromVisibWave heightAir tempDewpointWater temp
2017-May-28 05:48N 55°41' E 019°59'515.6
2017-May-28 05:31N 55°40' E 019°51'1315.4
2017-May-28 04:40N 55°39' E 019°28'315.6
2017-May-28 04:28N 55°39' E 019°23'715.5
2017-May-28 04:00N 55°38' E 019°10'815.2
2017-May-28 03:30N 55°37' E 018°57'815.4
2017-May-28 03:00N 55°36' E 018°43'815.6
2017-May-28 02:31N 55°35' E 018°30'815.5
2017-May-28 02:01N 55°34' E 018°16'815.5
2017-May-28 01:31N 55°33' E 018°02'815.8
2017-May-28 01:01N 55°33' E 017°49'815.8
2017-May-28 00:28N 55°32' E 017°34'715.7
2017-May-28 00:00N 55°31' E 017°21'815.7
2017-May-27 23:31N 55°30' E 017°07'815.8
2017-May-27 23:01N 55°30' E 016°53'815.8
2017-May-27 22:31N 55°29' E 016°39'815.8
2017-May-27 22:00N 55°28' E 016°25'815.7
2017-May-27 21:31N 55°28' E 016°12'816.0
2017-May-27 21:01N 55°27' E 015°58'816.1
2017-May-27 20:31N 55°26' E 015°43'815.9
2017-May-27 20:01N 55°25' E 015°29'815.6
2017-May-27 19:31N 55°25' E 015°16'815.7
2017-May-27 19:00N 55°24' E 015°02'815.8
2017-May-27 18:31N 55°23' E 014°48'714.9
2017-May-27 18:00N 55°20' E 014°36'816.1
2017-May-27 17:31N 55°15' E 014°26'815.4
2017-May-27 16:59N 55°11' E 014°13'815.5
2017-May-27 16:29N 55°11' E 013°59'715.1
2017-May-27 16:01N 55°12' E 013°47'815.4
2017-May-27 15:30N 55°13' E 013°33'815.4
2017-May-27 15:01N 55°13' E 013°20'815.6
2017-May-27 14:31N 55°14' E 013°07'1515.4
2017-May-27 13:31N 55°18' E 012°40'612.4
2017-May-27 13:00N 55°24' E 012°39'612.9
2017-May-27 12:30N 55°30' E 012°42'611.3
2017-May-27 12:00N 55°36' E 012°42'510.9
2017-May-27 11:30N 55°41' E 012°39'2 3.9
2017-May-27 10:59N 55°42' E 012°36'0 0.0
2017-May-27 10:29N 55°42' E 012°36'0 0.0
2017-May-27 09:59N 55°42' E 012°36'0 0.0
2017-May-27 09:30N 55°42' E 012°36'1 2.1
2017-May-27 09:00N 55°43' E 012°37'510.7
2017-May-27 08:30N 55°47' E 012°42'713.3
2017-May-27 08:00N 55°54' E 012°39'612.9
2017-May-27 07:30N 56°00' E 012°40'612.9
2017-May-27 07:00N 56°06' E 012°34'612.8
2017-May-27 06:30N 56°09' E 012°24'612.9
2017-May-27 06:00N 56°11' E 012°13'713.4
2017-May-27 05:29N 56°11' E 012°01'813.5
2017-May-27 04:56N 56°09' E 011°47'613.5
2017-May-27 04:29N 56°09' E 011°37'813.4
2017-May-27 03:55N 56°08' E 011°23'612.9
2017-May-27 03:25N 56°06' E 011°11'34 2.0
2017-May-26 10:21N 56°11' E 012°12'617.2
2017-May-26 10:00N 56°11' E 012°22'816.6
2017-May-26 09:31N 56°06' E 012°35'815.1
2017-May-26 09:01N 55°59' E 012°41'815.9
2017-May-26 08:31N 55°52' E 012°43'815.7
2017-May-26 08:01N 55°44' E 012°40'3 5.7
2017-May-26 07:30N 55°42' E 012°36'0 0.0
2017-May-26 07:00N 55°42' E 012°36'0 0.0
2017-May-26 06:31N 55°42' E 012°36'1 1.5
2017-May-26 06:00N 55°43' E 012°37'611.2
2017-May-26 05:30N 55°38' E 012°42'611.5
2017-May-26 05:00N 55°32' E 012°43'815.9
2017-May-26 04:30N 55°24' E 012°41'713.7
2017-May-26 04:00N 55°18' E 012°45'917.2
2017-May-26 03:30N 55°16' E 012°60'918.2
2017-May-26 03:00N 55°16' E 013°15'918.3
2017-May-26 02:30N 55°15' E 013°32'1218.2
2017-May-26 01:51N 55°14' E 013°52'718.5
2017-May-26 01:30N 55°14' E 014°04'917.7
2017-May-26 01:00N 55°15' E 014°19'918.4
2017-May-26 00:30N 55°22' E 014°31'917.0
2017-May-26 00:00N 55°26' E 014°44'918.3
2017-May-25 23:30N 55°27' E 014°59'918.3
2017-May-25 23:00N 55°27' E 015°15'918.2
2017-May-25 22:30N 55°28' E 015°32'918.1
2017-May-25 22:00N 55°29' E 015°47'917.8
2017-May-25 21:30N 55°29' E 016°03'918.0
2017-May-25 21:00N 55°30' E 016°19'917.9
2017-May-25 20:30N 55°30' E 016°35'917.9
2017-May-25 19:59N 55°30' E 016°51'3517.9
2017-May-25 18:00N 55°33' E 017°54'1417.8
2017-May-25 17:12N 55°35' E 018°19'417.9
2017-May-25 16:59N 55°35' E 018°26'1017.8
2017-May-25 16:26N 55°36' E 018°43'918.0
2017-May-25 15:55N 55°37' E 018°59'73 5.9
2017-May-25 03:37N 55°41' E 021°08'0 0.0
2017-May-25 03:31N 55°41' E 021°08'0 0.0
2017-May-25 03:00N 55°41' E 021°08'4 1.5
2017-May-25 00:25N 55°44' E 021°03'614.1
2017-May-25 00:00N 55°44' E 020°53'1217.0
2017-May-24 23:18N 55°43' E 020°32'717.0
2017-May-24 22:54N 55°42' E 020°19'717.0
2017-May-24 22:31N 55°41' E 020°08'916.9
2017-May-24 22:00N 55°41' E 019°53'1417.2
2017-May-24 21:12N 55°39' E 019°28'317.2
2017-May-24 21:00N 55°39' E 019°22'917.2
2017-May-24 20:30N 55°38' E 019°07'917.2
2017-May-24 20:00N 55°37' E 018°52'1117.5
2017-May-24 19:24N 55°35' E 018°33'817.5
2017-May-24 18:54N 55°34' E 018°18'717.8
2017-May-24 18:30N 55°34' E 018°06'917.9
2017-May-24 17:59N 55°33' E 017°49'817.9
2017-May-24 17:31N 55°32' E 017°34'917.7
2017-May-24 17:00N 55°31' E 017°19'917.8
2017-May-24 16:30N 55°30' E 017°03'917.6
2017-May-24 16:00N 55°29' E 016°48'917.6
2017-May-24 15:31N 55°28' E 016°32'917.8
2017-May-24 15:01N 55°28' E 016°17'917.9
2017-May-24 14:30N 55°27' E 016°01'1817.9
2017-May-24 13:31N 55°25' E 015°29'917.6
2017-May-24 13:01N 55°25' E 015°14'917.6
2017-May-24 12:31N 55°24' E 014°59'917.7
2017-May-24 12:01N 55°23' E 014°43'917.1
2017-May-24 11:31N 55°18' E 014°31'917.9
2017-May-24 11:01N 55°12' E 014°20'917.2
2017-May-24 10:30N 55°10' E 014°04'917.6
2017-May-24 10:00N 55°11' E 013°49'917.6
2017-May-24 09:30N 55°13' E 013°34'917.4
2017-May-24 09:00N 55°14' E 013°19'917.7
2017-May-24 08:30N 55°14' E 013°04'917.6
2017-May-24 08:01N 55°16' E 012°48'714.4
2017-May-24 07:31N 55°21' E 012°39'815.8
2017-May-24 07:00N 55°28' E 012°41'612.1
2017-May-24 06:30N 55°34' E 012°42'611.3
2017-May-24 06:00N 55°40' E 012°40'3 6.6
2017-May-24 05:30N 55°42' E 012°36'0 0.0
2017-May-24 04:59N 55°42' E 012°36'0 0.0
2017-May-24 04:29N 55°42' E 012°36'0 0.0
2017-May-24 04:00N 55°42' E 012°36'1 1.3
2017-May-24 03:30N 55°42' E 012°37'612.5
2017-May-24 03:00N 55°48' E 012°42'815.3
2017-May-24 02:30N 55°55' E 012°39'714.9
2017-May-24 02:00N 56°03' E 012°39'815.5
2017-May-24 01:30N 56°08' E 012°28'916.1
2017-May-24 00:57N 56°12' E 012°13'5 0.2
2017-May-22 20:50N 56°11' E 012°04'513.9
2017-May-22 20:28N 56°11' E 012°13'713.8
2017-May-22 20:00N 56°10' E 012°25'714.2
2017-May-22 19:30N 56°06' E 012°35'713.7
2017-May-22 19:00N 56°00' E 012°41'713.6
2017-May-22 18:30N 55°54' E 012°44'714.0
2017-May-22 18:00N 55°47' E 012°42'611.6
2017-May-22 17:30N 55°42' E 012°36'0 0.1
2017-May-22 17:00N 55°42' E 012°36'0 0.0
2017-May-22 16:30N 55°42' E 012°36'0 0.0
2017-May-22 16:00N 55°42' E 012°36'1 3.0
2017-May-22 15:31N 55°43' E 012°38'612.6
2017-May-22 15:00N 55°37' E 012°42'1110.7
2017-May-22 14:00N 55°26' E 012°41'714.6
2017-May-22 13:31N 55°19' E 012°40'714.3
2017-May-22 13:00N 55°16' E 012°52'714.1
2017-May-22 12:30N 55°15' E 013°05'714.5
2017-May-22 12:01N 55°15' E 013°17'814.3
2017-May-22 11:28N 55°15' E 013°31'914.2
2017-May-22 10:50N 55°14' E 013°47'514.3
2017-May-22 10:30N 55°14' E 013°55'714.4
2017-May-22 09:59N 55°14' E 014°08'613.1
2017-May-22 09:31N 55°15' E 014°19'714.4
2017-May-22 09:01N 55°20' E 014°28'815.3
2017-May-22 08:31N 55°25' E 014°38'918.3
2017-May-22 08:01N 55°27' E 014°54'918.6
2017-May-22 07:30N 55°27' E 015°10'815.9
2017-May-22 07:01N 55°28' E 015°24'815.2
2017-May-22 06:31N 55°29' E 015°37'715.0
2017-May-22 06:01N 55°29' E 015°50'815.4
2017-May-22 05:31N 55°29' E 016°04'815.4
2017-May-22 05:01N 55°30' E 016°18'815.4
2017-May-22 04:31N 55°30' E 016°31'815.5
2017-May-22 04:00N 55°31' E 016°45'815.5
2017-May-22 03:31N 55°31' E 016°59'1915.4
2017-May-22 02:15N 55°32' E 017°33'615.3
2017-May-22 01:53N 55°32' E 017°43'1315.3
2017-May-22 01:00N 55°34' E 018°06'815.5
2017-May-22 00:30N 55°35' E 018°20'815.4
2017-May-22 00:00N 55°35' E 018°33'815.6
2017-May-21 23:30N 55°36' E 018°47'815.5
2017-May-21 23:00N 55°37' E 019°01'815.2
2017-May-21 22:31N 55°38' E 019°14'815.3
2017-May-21 22:00N 55°39' E 019°28'57 6.6
2017-May-21 13:22N 55°41' E 021°08'69 7.3
2017-May-21 03:54N 55°37' E 019°06'615.8
2017-May-21 03:30N 55°37' E 018°55'3515.9
2017-May-21 01:18N 55°33' E 017°54'1315.6
2017-May-21 00:28N 55°32' E 017°31'815.3
2017-May-20 23:58N 55°31' E 017°18'715.4
2017-May-20 23:31N 55°30' E 017°05'815.4
2017-May-20 23:01N 55°30' E 016°52'815.5
2017-May-20 22:31N 55°29' E 016°38'815.4
2017-May-20 22:00N 55°28' E 016°25'815.6
2017-May-20 21:31N 55°27' E 016°11'815.6
2017-May-20 21:01N 55°26' E 015°57'815.6
2017-May-20 20:31N 55°26' E 015°43'815.8
2017-May-20 20:01N 55°25' E 015°30'815.7
2017-May-20 19:31N 55°24' E 015°16'815.5
2017-May-20 19:00N 55°24' E 015°02'816.0
2017-May-20 18:30N 55°23' E 014°48'714.7
2017-May-20 18:00N 55°20' E 014°36'815.9
2017-May-20 17:30N 55°15' E 014°26'815.4
2017-May-20 17:00N 55°11' E 014°14'815.8
2017-May-20 16:30N 55°11' E 014°00'816.0
2017-May-20 15:59N 55°12' E 013°46'816.0
2017-May-20 15:30N 55°12' E 013°32'815.8
2017-May-20 15:00N 55°13' E 013°19'815.9
2017-May-20 14:30N 55°14' E 013°05'1515.3
2017-May-20 13:31N 55°18' E 012°39'815.6
2017-May-20 13:01N 55°26' E 012°40'714.1
2017-May-20 12:30N 55°33' E 012°42'5 9.6
2017-May-20 12:00N 55°38' E 012°42'611.4
2017-May-20 11:31N 55°43' E 012°37'1 1.7
2017-May-20 10:59N 55°42' E 012°36'0 0.0
2017-May-20 10:29N 55°42' E 012°36'0 0.0
2017-May-20 09:59N 55°42' E 012°36'0 0.0
2017-May-20 09:30N 55°42' E 012°36'1 2.0
2017-May-20 09:00N 55°43' E 012°37'611.8
2017-May-20 08:30N 55°48' E 012°42'815.2
2017-May-20 08:01N 55°55' E 012°39'714.9
2017-May-20 07:30N 56°03' E 012°39'815.2
2017-May-20 07:00N 56°08' E 012°28'815.5
2017-May-20 06:30N 56°11' E 012°16'35 1.9
2017-May-19 11:42N 56°07' E 011°13'3314.3
2017-May-19 09:23N 56°11' E 012°12'514.5
2017-May-19 09:00N 56°11' E 012°22'714.5
2017-May-19 08:30N 56°07' E 012°33'714.2
2017-May-19 08:00N 56°01' E 012°40'714.5
2017-May-19 07:30N 55°54' E 012°44'714.3
2017-May-19 07:00N 55°47' E 012°43'612.6
2017-May-19 06:30N 55°42' E 012°36'0 0.3
2017-May-19 05:58N 55°42' E 012°36'0 0.0
2017-May-19 05:28N 55°42' E 012°36'0 0.6
2017-May-19 05:00N 55°42' E 012°36'1 2.7
2017-May-19 04:30N 55°42' E 012°38'5 9.9
2017-May-19 04:01N 55°37' E 012°42'5 9.7
2017-May-19 03:30N 55°32' E 012°43'815.1
2017-May-19 03:00N 55°25' E 012°41'714.1
2017-May-19 02:30N 55°18' E 012°45'917.2
2017-May-19 02:00N 55°16' E 012°59'918.6
2017-May-19 01:30N 55°16' E 013°16'918.6
2017-May-19 01:00N 55°15' E 013°32'1218.9
2017-May-19 00:23N 55°15' E 013°52'718.6
2017-May-19 00:00N 55°15' E 014°05'816.2
2017-May-18 23:30N 55°16' E 014°19'918.4
2017-May-18 23:00N 55°23' E 014°31'918.2
2017-May-18 22:31N 55°27' E 014°45'918.7
2017-May-18 22:00N 55°27' E 015°01'918.8
2017-May-18 21:30N 55°28' E 015°18'918.5
2017-May-18 21:00N 55°28' E 015°34'918.4
2017-May-18 20:31N 55°29' E 015°50'918.5
2017-May-18 20:00N 55°29' E 016°07'918.5
2017-May-18 19:31N 55°30' E 016°23'918.5
2017-May-18 19:00N 55°30' E 016°39'918.4
2017-May-18 18:30N 55°31' E 016°56'1018.4
2017-May-18 17:59N 55°31' E 017°13'  

Dump ship's entire track history